Aviation Digital Data Service (ADDS)

Output produced by TAFs form (2102 UTC 19 April 2015)
found at http://aviationweather.gov/adds/tafs/
 
KFMN 191734Z 1918/2018 VRB06KT P6SM SKC 
     FM191900 27015G25KT P6SM FEW100 
     FM200200 30006KT P6SM SCT110 
     FM200900 08005KT P6SM FEW120 
     FM201600 VRB04KT P6SM SCT120